Stations météo

réclame
Mon MeteoGroup
Zugspitze, Allemagne (10961): Température de l'air & dewpoint: 08.12.2019 04:00:00 - 14.12.2019 04:00:00 (CET)Zugspitze, Allemagne (10961): Vitesse du vent & gusts: 08.12.2019 04:00:00 - 14.12.2019 04:00:00 (CET)Zugspitze, Allemagne (10961): Direction du vent: 08.12.2019 04:00:00 - 14.12.2019 04:00:00 (CET)Zugspitze, Allemagne (10961): visibility: 08.12.2019 04:00:00 - 14.12.2019 04:00:00 (CET)Zugspitze, Allemagne (10961): Ensoleillement: 08.12.2019 04:00:00 - 14.12.2019 04:00:00 (CET)
Date & Time tt [°C] td [°C] ff [km/h] ff [knt] fx [km/h] fx [knt] dd vv [km] sd [min]
14.12.2019 04:00:00 -11,8 -14,8 31 17 83 45 W - 0
14.12.2019 03:00:00 -12,9 -14,8 37 20 72 39 WSW - 0
14.12.2019 02:00:00 -14,3 -15,9 45 25 86 46 WSW - 0
14.12.2019 01:00:00 -13,7 -15,2 44 24 75 41 WSW - 0
14.12.2019 00:00:00 -13,6 -15,1 32 17 62 33 W - 0
13.12.2019 23:00:00 -13,3 -15,0 33 18 63 34 NW - 0
13.12.2019 22:00:00 -13,1 -14,8 35 19 63 34 NW 2,0 0
13.12.2019 21:00:00 -13,1 -14,9 35 19 79 43 WNW 0,2 0
13.12.2019 20:00:00 -13,1 -14,9 32 17 84 45 NW 0,2 0
13.12.2019 19:00:00 -12,9 -14,7 34 18 73 40 NW 0,1 0
13.12.2019 18:00:00 -13,0 -14,8 32 18 56 30 NW 0,1 0
13.12.2019 17:00:00 -13,0 -14,8 31 17 72 39 W 0,1 0
13.12.2019 16:00:00 -13,1 -15,0 36 20 71 38 NW 0,2 0
13.12.2019 15:00:00 -12,4 -14,2 27 14 74 40 NW 0,1 0
13.12.2019 14:00:00 -11,6 -13,2 20 11 85 46 WNW 0,1 8
13.12.2019 13:00:00 -11,5 -13,2 51 28 101 55 WSW 0,3 3
13.12.2019 12:00:00 -10,8 -12,4 66 36 109 59 SW 0,5 0
13.12.2019 11:00:00 -10,5 -12,0 72 39 107 58 S 0,2 0
13.12.2019 10:00:00 -10,5 -12,6 64 35 106 58 S 0,5 0
13.12.2019 09:00:00 -10,2 -13,1 58 31 92 50 S 0,8 0
13.12.2019 08:00:00 -10,4 -14,1 54 29 89 48 SW 0,6 0
13.12.2019 07:00:00 -11,8 -13,9 44 24 91 49 S 4,1 0
13.12.2019 06:00:00 -12,2 -13,8 57 31 90 49 SSE 0,6 0
13.12.2019 05:00:00 -11,0 -12,9 56 30 89 48 SW 1,5 0
13.12.2019 04:00:00 -12,4 -14,8 54 29 81 44 S 0,4 0
13.12.2019 03:00:00 -11,6 -18,4 44 24 68 37 SW 10 0
13.12.2019 02:00:00 -11,2 -18,4 44 24 59 32 SW 8 0
13.12.2019 01:00:00 -11,6 -19,7 24 13 56 31 WSW 14 0
13.12.2019 00:00:00 -12,6 -25,7 40 22 66 36 WSW 1,8 0
12.12.2019 23:00:00 -13,5 -22,7 46 25 65 35 SSW 1,3 0
12.12.2019 22:00:00 -14,6 -19,2 36 20 51 28 SSE 1,5 0
12.12.2019 21:00:00 -15,1 -18,4 27 15 39 21 SSE 75 0
12.12.2019 20:00:00 -15,0 -17,9 22 12 26 14 SE 75 0
12.12.2019 19:00:00 -15,1 -17,5 21 12 26 14 S 75 0
12.12.2019 18:00:00 -15,3 -17,2 21 11 26 14 SSE 28 0
12.12.2019 17:00:00 -15,1 -17,4 14 7 16 9 S 74 29
12.12.2019 16:00:00 -14,5 -15,4 9 5 19 11 WNW 0,2 6
12.12.2019 15:00:00 -14,1 -15,1 10 6 28 15 NW 0,1 0
12.12.2019 14:00:00 -14,0 -15,4 10 5 36 20 NNW 0,1 0
12.12.2019 13:00:00 -14,2 -16,1 22 12 36 20 NNW 0,1 0
12.12.2019 12:00:00 -14,0 -15,8 17 9 43 23 WNW 0,1 0
12.12.2019 11:00:00 -13,8 -15,6 23 12 33 18 NW 0,1 0
12.12.2019 10:00:00 -13,7 -15,1 11 6 27 14 NW 0,1 0
12.12.2019 09:00:00 -14,1 -15,8 21 12 29 16 WNW 0,1 0
12.12.2019 08:00:00 -13,9 -15,6 14 8 22 12 NNW 0,2 0
12.12.2019 07:00:00 -13,3 -14,6 6 3 13 7 W 0,4 0
12.12.2019 06:00:00 -12,8 -14,1 4 2 16 9 NNW 0,5 0
12.12.2019 05:00:00 -12,5 -13,9 6 3 12 6 NW 0,2 0
12.12.2019 04:00:00 -11,7 -13,1 0 0 8 5 N 0,9 0
12.12.2019 03:00:00 -10,8 -11,9 2 1 10 6 S 2,2 0
12.12.2019 02:00:00 -10,7 -11,6 6 3 10 5 WSW 0,7 0
12.12.2019 01:00:00 -10,5 -12,0 6 3 21 11 SSW 13 0
12.12.2019 00:00:00 -11,1 -15,4 12 6 20 11 SSE 2,2 0
11.12.2019 23:00:00 -10,0 -19,9 16 9 20 11 SE 75 0
11.12.2019 22:00:00 -9,2 -21,5 15 8 25 14 ESE 75 0
11.12.2019 21:00:00 -8,0 -19,3 20 11 29 16 SE 75 0
11.12.2019 20:00:00 -7,3 -20,1 15 8 20 11 ESE 75 0
11.12.2019 19:00:00 -5,4 -20,1 16 9 25 13 SSE 75 0
11.12.2019 18:00:00 -4,9 -20,4 19 10 27 15 ESE 75 0
11.12.2019 17:00:00 -4,8 -20,3 22 12 26 14 ESE 75 0
11.12.2019 16:00:00 -4,5 -19,2 18 10 21 12 SSE 75 0
11.12.2019 15:00:00 -3,6 -16,7 14 7 24 13 SSW 75 0
11.12.2019 14:00:00 -3,1 -16,9 18 10 25 14 SW 75 0
11.12.2019 13:00:00 -3,5 -16,9 20 11 24 13 SW 75 0
11.12.2019 12:00:00 -3,0 -15,6 15 8 20 11 SW 75 2
11.12.2019 11:00:00 -1,9 -15,7 11 6 18 10 S 75 60
11.12.2019 10:00:00 -3,0 -20,6 11 6 21 11 WSW 75 60
11.12.2019 09:00:00 -3,0 -20,5 19 10 23 12 W 75 55
11.12.2019 08:00:00 -3,0 -23,2 13 7 16 8 WSW 75 0
11.12.2019 07:00:00 -3,6 -24,4 9 5 23 12 W 75 0
11.12.2019 06:00:00 -4,7 -24,8 19 11 25 14 W 75 0
11.12.2019 05:00:00 -5,3 -24,7 19 10 29 16 WNW 75 0
11.12.2019 04:00:00 -5,8 -25,5 21 12 31 17 N 75 0
11.12.2019 03:00:00 -5,9 -25,7 24 13 28 15 NNW 75 0
11.12.2019 02:00:00 -6,0 -28,0 23 13 28 15 NNW 75 0
11.12.2019 01:00:00 -6,2 -30,2 17 9 22 12 N 75 0
11.12.2019 00:00:00 -6,6 -30,2 8 4 22 12 NNW 72 0
10.12.2019 23:00:00 -7,1 -30,6 9 5 27 15 N 75 0
10.12.2019 22:00:00 -7,0 -30,3 9 5 25 14 N 30 0
10.12.2019 21:00:00 -7,7 -32,0 11 6 23 12 NNW 21 0
10.12.2019 20:00:00 -8,6 -33,8 10 5 24 13 NNW 51 0
10.12.2019 19:00:00 -9,4 -30,5 10 5 32 17 NNW 42 0
10.12.2019 18:00:00 -11,4 -26,4 11 6 40 22 NNW 1,9 0
10.12.2019 17:00:00 -13,9 -19,7 12 7 26 14 NNW 3,4 36
10.12.2019 16:00:00 -14,8 -21,1 10 5 36 20 NW 1,2 60
10.12.2019 15:00:00 -15,9 -19,7 19 10 35 19 NNW 1,0 60
10.12.2019 14:00:00 -15,8 -18,5 16 9 35 19 NNW 56 60
10.12.2019 13:00:00 -14,4 -16,3 24 13 34 18 N 0,6 60
10.12.2019 12:00:00 -15,8 -15,8 7 4 25 14 NW 0,1 2
10.12.2019 11:00:00 -16,1 -16,5 11 6 27 14 N 0,1 0
10.12.2019 10:00:00 -16,2 -17,1 13 7 31 17 N 0,1 0
10.12.2019 09:00:00 -15,2 -16,4 14 8 23 12 NNW 0,1 0
10.12.2019 08:00:00 -14,7 -15,8 11 6 21 11 NNW 0,1 0
10.12.2019 07:00:00 -14,0 -15,1 10 6 33 18 NNW 3,7 0
10.12.2019 06:00:00 -13,7 -15,1 14 8 35 19 NNW - 0
10.12.2019 05:00:00 -13,0 -13,4 21 11 34 19 NNW - 0
10.12.2019 04:00:00 -12,2 -12,9 16 9 39 21 N - 0
10.12.2019 03:00:00 -12,1 -13,0 17 9 36 19 NNW - 0
10.12.2019 02:00:00 -11,9 -13,0 18 10 34 18 NNW - 0
10.12.2019 01:00:00 -11,6 -12,8 18 10 32 18 NNW - 0
10.12.2019 00:00:00 -11,8 -13,1 18 10 34 18 N - 0
09.12.2019 23:00:00 -11,6 -13,0 20 11 35 19 NNW - 0
09.12.2019 22:00:00 -11,2 -12,5 18 10 41 22 NNW - 0
09.12.2019 21:00:00 -10,9 -12,3 21 11 53 29 NNW 1,0 0
09.12.2019 20:00:00 -10,5 -11,7 27 14 54 29 WSW 0,2 0
09.12.2019 19:00:00 -10,7 -11,8 29 15 57 31 WSW 0,2 0
09.12.2019 18:00:00 -11,1 -12,4 40 21 66 36 WSW 0,2 0
09.12.2019 17:00:00 -10,9 -11,9 21 12 61 33 W 0,2 0
09.12.2019 16:00:00 -10,3 -11,7 17 9 56 30 NW 0,1 0
09.12.2019 15:00:00 -10,7 -12,2 33 18 58 31 WSW 59 0
09.12.2019 14:00:00 -10,9 -12,3 35 19 80 43 WSW 7 32
09.12.2019 13:00:00 -10,4 -11,8 33 18 82 44 WSW 30 46
09.12.2019 12:00:00 -10,5 -11,8 48 26 79 43 WSW 0,1 5
09.12.2019 11:00:00 -10,4 -11,6 19 10 55 30 WNW 0,1 0
09.12.2019 10:00:00 -9,6 -10,8 26 14 71 38 WSW 0,1 2
09.12.2019 09:00:00 -10,0 -11,3 44 24 95 51 WSW 1,1 0
09.12.2019 08:00:00 -9,7 -11,0 48 26 81 44 WSW 0,1 0
09.12.2019 07:00:00 -10,4 -11,8 34 19 71 38 W 0,1 0
09.12.2019 06:00:00 -7,9 -8,9 24 13 51 28 WSW 0,1 0
09.12.2019 05:00:00 -6,9 -7,8 20 11 37 20 W - 0
09.12.2019 04:00:00 -7,4 -8,3 24 13 51 28 WSW 0,2 0
09.12.2019 03:00:00 -7,7 -8,6 17 9 46 25 WNW 75 0
09.12.2019 02:00:00 -6,3 -10,3 29 16 57 31 SW 75 0
09.12.2019 01:00:00 -4,3 -10,3 27 14 53 28 SW 75 0
09.12.2019 00:00:00 -3,6 -9,6 33 18 79 43 WSW 71 0
08.12.2019 23:00:00 -3,7 -11,3 40 22 81 44 WSW 52 0
08.12.2019 22:00:00 -2,7 -13,2 41 22 75 41 WSW 75 0
08.12.2019 21:00:00 -2,9 -13,8 31 17 90 49 WSW 73 0
08.12.2019 20:00:00 -2,7 -13,4 41 22 77 42 SW 75 0
08.12.2019 19:00:00 -2,5 -12,5 48 26 68 37 SW 75 0
08.12.2019 18:00:00 -2,1 -11,4 42 23 84 45 WSW 75 0
08.12.2019 17:00:00 -2,2 -10,8 38 21 72 39 WSW 75 23
08.12.2019 16:00:00 -2,1 -11,1 43 23 72 39 WSW 75 49
08.12.2019 15:00:00 -2,2 -12,3 32 17 67 36 WSW 75 55
08.12.2019 14:00:00 -1,8 -13,6 35 19 74 40 WSW 75 60
08.12.2019 13:00:00 -1,3 -16,4 41 22 75 40 WSW 60 60
08.12.2019 12:00:00 -1,8 -18,6 56 30 81 44 SW 58 60
08.12.2019 11:00:00 -2,1 -19,0 55 30 83 45 SW 29 60
08.12.2019 10:00:00 -2,2 -16,5 58 31 75 41 WSW 14 60
08.12.2019 09:00:00 -2,7 -19,9 53 28 69 37 WSW 12 46
08.12.2019 08:00:00 -3,3 -19,9 36 19 59 32 WSW 75 0
08.12.2019 07:00:00 -3,6 -14,5 18 10 48 26 W 75 0
08.12.2019 06:00:00 -4,8 -15,0 18 10 43 23 W 49 0
08.12.2019 05:00:00 -5,5 -14,9 16 9 46 25 W 75 0
08.12.2019 04:00:00 -6,3 -14,4 18 10 54 29 NW 11 0

tt = Température de l'air
td = dewpoint
ff = Vitesse du vent
fx = gusts
dd = Direction du vent
vv = visibility
sd = Ensoleillement

stations d'obs. à proximité